createdAt,value
2023-03-26T00:00:03.120Z,81.1
2023-03-26T00:03:03.186Z,81.1
2023-03-26T00:06:03.296Z,81.1
2023-03-26T00:09:03.016Z,81.1
2023-03-26T00:12:03.092Z,81.1
2023-03-26T00:15:03.061Z,81.1
2023-03-26T00:18:03.211Z,81.1
2023-03-26T00:21:02.990Z,81.1
2023-03-26T00:24:02.979Z,81.1
2023-03-26T00:27:03.145Z,81.1
2023-03-26T00:30:03.194Z,81.1
2023-03-26T00:33:03.173Z,81.1
2023-03-26T00:36:06.730Z,81.2
2023-03-26T00:39:02.994Z,81.2
2023-03-26T00:42:03.011Z,81.2
2023-03-26T00:45:03.256Z,81.2
2023-03-26T00:48:05.175Z,81.2
2023-03-26T00:51:02.953Z,81.2
2023-03-26T00:54:03.011Z,81.2
2023-03-26T00:57:03.133Z,81.2
2023-03-26T01:00:02.987Z,81.2
2023-03-26T01:03:03.578Z,81.2
2023-03-26T01:06:03.037Z,81.2
2023-03-26T01:09:02.998Z,81.2
2023-03-26T01:12:03.074Z,81.2
2023-03-26T01:15:03.111Z,81.2
2023-03-26T01:18:03.084Z,81.2
2023-03-26T01:21:03.020Z,81.2
2023-03-26T01:24:04.668Z,81.2
2023-03-26T01:27:03.036Z,81.2
2023-03-26T01:30:03.049Z,81.2
2023-03-26T01:33:03.494Z,81.2
2023-03-26T01:36:03.218Z,81.2
2023-03-26T01:39:03.235Z,81.2
2023-03-26T01:42:03.011Z,81.2
2023-03-26T01:45:03.090Z,81.2
2023-03-26T01:48:03.150Z,81.2
2023-03-26T01:51:03.023Z,81.2
2023-03-26T01:54:03.102Z,81.2
2023-03-26T01:57:03.712Z,81.2
2023-03-26T02:00:03.099Z,81.2
2023-03-26T02:03:03.152Z,81.2
2023-03-26T02:06:03.014Z,81.2
2023-03-26T02:09:03.386Z,81.2
2023-03-26T02:12:03.164Z,81.2
2023-03-26T02:15:03.063Z,81.2
2023-03-26T02:18:03.277Z,81.2
2023-03-26T02:21:03.559Z,81.2
2023-03-26T02:24:03.704Z,81.2
2023-03-26T02:27:03.627Z,81.2
2023-03-26T02:30:03.089Z,81.2
2023-03-26T02:33:03.129Z,81.2
2023-03-26T02:36:04.001Z,81.2
2023-03-26T02:39:03.119Z,81.2
2023-03-26T02:42:03.010Z,81.2
2023-03-26T02:45:03.070Z,81.2
2023-03-26T02:48:03.375Z,81.2
2023-03-26T02:51:03.018Z,81.2
2023-03-26T02:54:02.966Z,81.2
2023-03-26T02:57:03.283Z,81.2
2023-03-26T03:00:03.043Z,81.2
2023-03-26T03:03:03.258Z,81.2
2023-03-26T03:06:03.025Z,81.2
2023-03-26T03:09:03.008Z,81.2
2023-03-26T03:12:02.943Z,81.2
2023-03-26T03:15:02.984Z,81.2
2023-03-26T03:18:03.139Z,81.2
2023-03-26T03:21:03.074Z,81.2
2023-03-26T03:24:03.104Z,81
2023-03-26T03:27:02.977Z,81
2023-03-26T03:30:03.071Z,81
2023-03-26T03:33:03.044Z,81
2023-03-26T03:36:03.113Z,81
2023-03-26T03:39:03.063Z,81
2023-03-26T03:42:02.974Z,81
2023-03-26T03:45:02.974Z,81
2023-03-26T03:48:03.233Z,81
2023-03-26T03:51:02.926Z,81
2023-03-26T03:54:02.966Z,81
2023-03-26T03:57:03.172Z,81
2023-03-26T04:00:04.506Z,81
2023-03-26T04:03:03.138Z,81
2023-03-26T04:06:02.977Z,81
2023-03-26T04:09:03.025Z,81
2023-03-26T04:12:02.992Z,81
2023-03-26T04:15:03.005Z,81
2023-03-26T04:18:03.205Z,81
2023-03-26T04:21:02.994Z,81
2023-03-26T04:24:02.973Z,81
2023-03-26T04:27:02.968Z,81
2023-03-26T04:30:03.028Z,81
2023-03-26T04:33:03.056Z,81
2023-03-26T04:36:03.302Z,81
2023-03-26T04:39:02.975Z,81
2023-03-26T04:42:03.002Z,81
2023-03-26T04:45:03.000Z,81
2023-03-26T04:48:03.221Z,81
2023-03-26T04:51:02.973Z,81
2023-03-26T04:54:03.042Z,81
2023-03-26T04:57:03.151Z,81
2023-03-26T05:00:03.048Z,81
2023-03-26T05:03:03.168Z,81
2023-03-26T05:06:02.952Z,81
2023-03-26T05:09:03.072Z,81.2
2023-03-26T05:12:03.072Z,81.2
2023-03-26T05:15:03.039Z,81.2
2023-03-26T05:18:03.093Z,81.2
2023-03-26T05:21:03.081Z,81.2
2023-03-26T05:24:03.046Z,81.2
2023-03-26T05:27:03.023Z,81.2
2023-03-26T05:30:03.132Z,81.2
2023-03-26T05:33:03.356Z,81.2
2023-03-26T05:36:03.146Z,81.2
2023-03-26T05:39:03.042Z,81.2
2023-03-26T05:42:03.083Z,81.2
2023-03-26T05:45:03.109Z,81.2
2023-03-26T05:48:03.500Z,81.2
2023-03-26T05:51:03.066Z,81.2
2023-03-26T05:54:03.088Z,81.2
2023-03-26T05:57:03.125Z,81.2
2023-03-26T06:00:03.177Z,81.2
2023-03-26T06:03:03.628Z,81.8
2023-03-26T06:06:03.035Z,81.8
2023-03-26T06:09:05.262Z,81.8
2023-03-26T06:12:03.019Z,81.8
2023-03-26T06:15:03.030Z,81.8
2023-03-26T06:18:03.099Z,81.8
2023-03-26T06:21:03.035Z,81.8
2023-03-26T06:24:03.035Z,81.8
2023-03-26T06:27:03.035Z,81.8
2023-03-26T06:30:03.046Z,81.8
2023-03-26T06:33:03.158Z,81.8
2023-03-26T06:36:03.124Z,81.8
2023-03-26T06:39:09.851Z,81.8
2023-03-26T06:42:03.046Z,81.8
2023-03-26T06:45:03.091Z,81.8
2023-03-26T06:48:03.186Z,81.8
2023-03-26T06:51:03.093Z,81.8
2023-03-26T06:54:03.049Z,81.8
2023-03-26T06:57:03.258Z,81.8
2023-03-26T07:00:03.774Z,81.8
2023-03-26T07:03:03.127Z,81.8
2023-03-26T07:06:03.041Z,81.8
2023-03-26T07:09:03.064Z,81.8
2023-03-26T07:12:03.012Z,81.8
2023-03-26T07:15:03.081Z,81.8
2023-03-26T07:18:03.136Z,81.8
2023-03-26T07:21:03.015Z,81.8
2023-03-26T07:24:03.062Z,81.8
2023-03-26T07:27:03.035Z,81.8
2023-03-26T07:30:03.142Z,79.4
2023-03-26T07:33:03.204Z,79.4
2023-03-26T07:36:03.084Z,79.4
2023-03-26T07:39:02.970Z,79.4
2023-03-26T07:42:03.022Z,79.4
2023-03-26T07:45:03.077Z,79.4
2023-03-26T07:48:03.120Z,79.4
2023-03-26T07:51:03.043Z,79.4
2023-03-26T07:54:03.201Z,79.4
2023-03-26T07:57:04.464Z,79.4
2023-03-26T08:00:03.106Z,79.4
2023-03-26T08:03:03.460Z,79.4
2023-03-26T08:06:03.068Z,79.4
2023-03-26T08:09:03.313Z,79.4
2023-03-26T08:12:03.218Z,79.4
2023-03-26T08:15:03.057Z,79.4
2023-03-26T08:18:03.186Z,79.4
2023-03-26T08:21:03.077Z,79.4
2023-03-26T08:24:03.036Z,79.4
2023-03-26T08:27:03.007Z,79.3
2023-03-26T08:30:03.295Z,79.3
2023-03-26T08:33:03.059Z,79.3
2023-03-26T08:36:03.177Z,79.3
2023-03-26T08:39:02.991Z,79.3
2023-03-26T08:42:03.048Z,79.3
2023-03-26T08:45:03.086Z,79.3
2023-03-26T08:48:03.159Z,79.3
2023-03-26T08:51:03.025Z,79.3
2023-03-26T08:54:03.032Z,79.3
2023-03-26T08:57:03.183Z,79.3
2023-03-26T09:00:05.348Z,79.3
2023-03-26T09:03:03.116Z,78.3
2023-03-26T09:06:03.000Z,78.3
2023-03-26T09:09:03.110Z,78.3
2023-03-26T09:12:03.087Z,78.3
2023-03-26T09:15:03.107Z,78.3
2023-03-26T09:18:03.235Z,78.3
2023-03-26T09:21:03.033Z,78.3
2023-03-26T09:24:03.070Z,78.3
2023-03-26T09:27:03.043Z,78.3
2023-03-26T09:30:03.067Z,78.3
2023-03-26T09:33:03.162Z,78.3
2023-03-26T09:36:03.188Z,78.3
2023-03-26T09:39:02.990Z,78.3
2023-03-26T09:42:03.096Z,77.4
2023-03-26T09:45:03.095Z,77.4
2023-03-26T09:48:03.145Z,77.4
2023-03-26T09:51:03.062Z,77.4
2023-03-26T09:54:03.034Z,77.4
2023-03-26T09:57:03.193Z,77.4
2023-03-26T10:00:03.114Z,77.4
2023-03-26T10:03:03.118Z,77.4
2023-03-26T10:06:03.029Z,77.4
2023-03-26T10:09:03.099Z,77.4
2023-03-26T10:12:03.081Z,77.4
2023-03-26T10:15:03.078Z,75.3
2023-03-26T10:18:03.286Z,75.3
2023-03-26T10:21:03.024Z,75.3
2023-03-26T10:24:03.048Z,75.3
2023-03-26T10:27:13.208Z,75.3
2023-03-26T10:30:03.119Z,75.3
2023-03-26T10:33:03.154Z,75.3
2023-03-26T10:36:03.128Z,75.7
2023-03-26T10:39:03.105Z,75.7
2023-03-26T10:42:03.012Z,75.7
2023-03-26T10:45:03.073Z,75.7
2023-03-26T10:48:03.188Z,75.7
2023-03-26T10:51:03.019Z,75.7
2023-03-26T10:54:03.052Z,75.7
2023-03-26T10:57:03.268Z,75.7
2023-03-26T11:00:03.094Z,75.7
2023-03-26T11:03:03.133Z,75.7
2023-03-26T11:06:03.286Z,75.7
2023-03-26T11:09:03.021Z,75.7
2023-03-26T11:12:03.031Z,75.7
2023-03-26T11:15:03.113Z,75.7
2023-03-26T11:18:03.159Z,75.7
2023-03-26T11:21:22.976Z,75.7
2023-03-26T11:24:08.666Z,75.7
2023-03-26T11:27:20.962Z,76.3
2023-03-26T11:30:03.054Z,76.3
2023-03-26T11:33:03.193Z,76.3
2023-03-26T11:36:03.265Z,76.3
2023-03-26T11:39:03.133Z,76.3
2023-03-26T11:42:03.033Z,76.3
2023-03-26T11:45:03.118Z,76.3
2023-03-26T11:48:03.182Z,76.3
2023-03-26T11:51:03.063Z,76.3
2023-03-26T11:54:03.074Z,76.3
2023-03-26T11:57:09.473Z,74.5
2023-03-26T12:00:03.161Z,74.5
2023-03-26T12:03:03.142Z,74.5
2023-03-26T12:06:03.073Z,74.5
2023-03-26T12:09:03.038Z,74.5
2023-03-26T12:12:03.056Z,74.5
2023-03-26T12:15:03.032Z,74.5
2023-03-26T12:18:03.122Z,74.5
2023-03-26T12:21:03.031Z,74.5
2023-03-26T12:24:03.038Z,74.5
2023-03-26T12:27:03.040Z,72.9
2023-03-26T12:30:03.129Z,72.9
2023-03-26T12:33:03.120Z,72.9
2023-03-26T12:36:03.381Z,72.9
2023-03-26T12:45:04.320Z,72.9
2023-03-26T12:48:06.791Z,72.9
2023-03-26T12:51:03.100Z,72.9
2023-03-26T12:54:03.039Z,72.9
2023-03-26T12:57:15.688Z,72.9
2023-03-26T13:00:03.362Z,72.9
2023-03-26T13:03:03.285Z,72.9
2023-03-26T13:06:03.058Z,72.9
2023-03-26T13:09:03.026Z,72.9
2023-03-26T13:12:03.056Z,72.9
2023-03-26T13:15:03.142Z,72.9
2023-03-26T13:18:03.158Z,72.9
2023-03-26T13:21:03.033Z,72.9
2023-03-26T13:24:03.053Z,72.9
2023-03-26T13:27:03.040Z,72.9
2023-03-26T13:30:03.172Z,75.8
2023-03-26T13:33:03.192Z,75.8
2023-03-26T13:36:25.875Z,75.8
2023-03-26T13:39:03.272Z,75.8
2023-03-26T13:42:03.080Z,75.8
2023-03-26T13:45:08.327Z,75.8
2023-03-26T13:48:03.254Z,75.8
2023-03-26T13:51:03.049Z,75.8
2023-03-26T13:54:03.083Z,75.8
2023-03-26T13:57:03.206Z,75.8
2023-03-26T14:00:03.192Z,75.8
2023-03-26T14:03:03.180Z,75.8
2023-03-26T14:06:03.021Z,75.8
2023-03-26T14:09:03.000Z,75.8
2023-03-26T14:12:03.021Z,75.8
2023-03-26T14:15:03.043Z,75.8
2023-03-26T14:18:03.163Z,75.8
2023-03-26T14:21:03.023Z,75.8
2023-03-26T14:24:03.056Z,78.6
2023-03-26T14:27:03.022Z,78.6
2023-03-26T14:30:03.198Z,78.6
2023-03-26T14:33:03.077Z,78.6
2023-03-26T14:36:03.208Z,78.6
2023-03-26T14:39:03.012Z,78.6
2023-03-26T14:42:03.062Z,78.6
2023-03-26T14:45:03.034Z,78.6
2023-03-26T14:48:03.307Z,78.6
2023-03-26T14:51:03.181Z,78.6
2023-03-26T14:54:03.017Z,78.6
2023-03-26T14:57:03.301Z,78.9
2023-03-26T15:00:03.152Z,78.9
2023-03-26T15:03:03.207Z,78.9
2023-03-26T15:06:03.032Z,78.9
2023-03-26T15:09:03.106Z,78.9
2023-03-26T15:12:15.864Z,78.9
2023-03-26T15:15:03.167Z,78.9
2023-03-26T15:18:03.113Z,78.9
2023-03-26T15:21:03.088Z,80.2
2023-03-26T15:24:03.029Z,80.2
2023-03-26T15:27:03.019Z,80.2
2023-03-26T15:30:03.143Z,80.2
2023-03-26T15:33:03.133Z,80.2
2023-03-26T15:36:03.259Z,80.2
2023-03-26T15:39:03.138Z,80.2
2023-03-26T15:42:03.049Z,80.2
2023-03-26T15:45:03.015Z,80.2
2023-03-26T15:48:03.252Z,80.2
2023-03-26T15:51:03.007Z,80.2
2023-03-26T15:54:03.055Z,80.2
2023-03-26T15:57:03.175Z,80.2
2023-03-26T16:00:03.090Z,80.2
2023-03-26T16:03:03.166Z,80.2
2023-03-26T16:06:03.047Z,83.2
2023-03-26T16:09:03.032Z,83.2
2023-03-26T16:12:02.997Z,83.2
2023-03-26T16:15:03.080Z,83.2
2023-03-26T16:18:03.122Z,83.2
2023-03-26T16:21:03.012Z,83.2
2023-03-26T16:24:03.016Z,83.2
2023-03-26T16:27:03.041Z,83.2
2023-03-26T16:30:03.143Z,83.2
2023-03-26T16:33:03.285Z,83.2
2023-03-26T16:36:03.075Z,83.2
2023-03-26T16:39:03.055Z,83.2
2023-03-26T16:42:09.074Z,83.2
2023-03-26T16:45:03.635Z,83.8
2023-03-26T16:48:03.453Z,83.8
2023-03-26T16:51:03.035Z,83.8
2023-03-26T16:54:03.217Z,83.8
2023-03-26T16:57:03.120Z,83.8
2023-03-26T17:00:09.763Z,83.8
2023-03-26T17:03:03.157Z,83.8
2023-03-26T17:06:03.047Z,83.8
2023-03-26T17:09:03.075Z,83.8
2023-03-26T17:12:03.046Z,84.6
2023-03-26T17:15:03.198Z,84.6
2023-03-26T17:18:03.303Z,84.6
2023-03-26T17:21:03.010Z,84.6
2023-03-26T17:24:03.070Z,84.6
2023-03-26T17:27:03.103Z,84.6
2023-03-26T17:30:03.232Z,84.6
2023-03-26T17:33:03.164Z,84.6
2023-03-26T17:36:03.404Z,84.6
2023-03-26T17:39:03.246Z,83.9
2023-03-26T17:42:03.009Z,83.9
2023-03-26T17:45:03.039Z,83.9
2023-03-26T17:48:03.053Z,83.9
2023-03-26T17:51:02.944Z,83.9
2023-03-26T17:54:03.033Z,83.9
2023-03-26T17:57:03.154Z,83.9
2023-03-26T18:00:03.020Z,83.9
2023-03-26T18:03:03.189Z,83.9
2023-03-26T18:06:02.962Z,81.2
2023-03-26T18:09:04.345Z,81.2
2023-03-26T18:12:02.969Z,81.2
2023-03-26T18:15:02.989Z,80.6
2023-03-26T18:18:03.071Z,80.6
2023-03-26T18:21:05.920Z,80.6
2023-03-26T18:24:03.083Z,80.6
2023-03-26T18:27:03.025Z,80.6
2023-03-26T18:30:05.303Z,80.6
2023-03-26T18:33:03.452Z,79.5
2023-03-26T18:36:03.163Z,79.5
2023-03-26T18:39:03.001Z,79.5
2023-03-26T18:42:03.021Z,79.5
2023-03-26T18:45:07.362Z,79.5
2023-03-26T18:48:03.087Z,79.5
2023-03-26T18:51:07.339Z,79.5
2023-03-26T18:54:03.002Z,79.5
2023-03-26T18:57:03.111Z,79.5
2023-03-26T19:00:03.035Z,79.5
2023-03-26T19:03:03.332Z,78.4
2023-03-26T19:06:02.998Z,78.4
2023-03-26T19:09:03.046Z,78.4
2023-03-26T19:12:02.988Z,78.4
2023-03-26T19:15:03.020Z,78.4
2023-03-26T19:18:03.067Z,78.4
2023-03-26T19:21:03.131Z,78.4
2023-03-26T19:24:03.062Z,78.3
2023-03-26T19:27:03.443Z,78.3
2023-03-26T19:30:03.064Z,78.3
2023-03-26T19:33:16.218Z,78.3
2023-03-26T19:36:03.194Z,78.3
2023-03-26T19:39:02.981Z,78.3
2023-03-26T19:42:03.038Z,78.3
2023-03-26T19:45:02.978Z,78.3
2023-03-26T19:48:18.152Z,78.3
2023-03-26T19:51:02.971Z,77.6
2023-03-26T19:54:03.050Z,77.6
2023-03-26T19:57:03.085Z,77.6
2023-03-26T20:00:03.141Z,77.6
2023-03-26T20:03:03.321Z,77.6
2023-03-26T20:06:02.991Z,77.6
2023-03-26T20:09:02.986Z,77.6
2023-03-26T20:12:03.031Z,75
2023-03-26T20:15:03.056Z,75
2023-03-26T20:18:03.162Z,75
2023-03-26T20:21:03.003Z,75
2023-03-26T20:24:02.991Z,75
2023-03-26T20:27:03.041Z,75
2023-03-26T20:30:03.424Z,75
2023-03-26T20:33:15.965Z,75
2023-03-26T20:36:03.328Z,75
2023-03-26T20:39:03.044Z,72.5
2023-03-26T20:42:02.961Z,72.5
2023-03-26T20:45:03.241Z,72.5
2023-03-26T20:48:03.175Z,72.5
2023-03-26T20:51:03.289Z,72.5
2023-03-26T20:54:03.174Z,72.5
2023-03-26T20:57:03.065Z,72.5
2023-03-26T21:00:03.083Z,74
2023-03-26T21:03:03.060Z,74
2023-03-26T21:06:03.016Z,74
2023-03-26T21:09:03.007Z,74
2023-03-26T21:12:03.051Z,74.1
2023-03-26T21:15:22.707Z,74.1
2023-03-26T21:18:03.141Z,74.1
2023-03-26T21:21:22.435Z,74.1
2023-03-26T21:24:03.008Z,74.1
2023-03-26T21:27:03.031Z,74.1
2023-03-26T21:30:03.015Z,74.5
2023-03-26T21:33:03.231Z,74.5
2023-03-26T21:36:03.313Z,74.5
2023-03-26T21:39:02.978Z,74.5
2023-03-26T21:42:08.307Z,74.9
2023-03-26T21:45:02.984Z,74.9
2023-03-26T21:48:03.137Z,74.9
2023-03-26T21:51:02.958Z,74.9
2023-03-26T21:54:03.017Z,74.9
2023-03-26T21:57:03.032Z,74.9
2023-03-26T22:00:03.406Z,75.7
2023-03-26T22:03:03.246Z,75.7
2023-03-26T22:06:03.035Z,75.7
2023-03-26T22:09:03.003Z,76.2
2023-03-26T22:12:03.021Z,76.2
2023-03-26T22:15:02.941Z,76.2
2023-03-26T22:18:03.174Z,76.2
2023-03-26T22:21:03.058Z,76.2
2023-03-26T22:24:02.974Z,76.2
2023-03-26T22:27:03.017Z,76.6
2023-03-26T22:30:03.003Z,76.6
2023-03-26T22:33:03.160Z,76.6
2023-03-26T22:36:03.168Z,76.6
2023-03-26T22:39:02.984Z,76.6
2023-03-26T22:42:03.160Z,76.6
2023-03-26T22:45:03.043Z,77.4
2023-03-26T22:48:06.854Z,77.4
2023-03-26T22:51:02.971Z,77.4
2023-03-26T22:54:03.029Z,77.4
2023-03-26T22:57:03.096Z,77.4
2023-03-26T23:00:03.096Z,77.4
2023-03-26T23:03:03.492Z,77.6
2023-03-26T23:06:03.058Z,77.6
2023-03-26T23:09:02.990Z,77.6
2023-03-26T23:12:03.025Z,77.6
2023-03-26T23:15:02.946Z,77.6
2023-03-26T23:18:03.148Z,77.6
2023-03-26T23:21:03.023Z,77.8
2023-03-26T23:24:03.009Z,77.8
2023-03-26T23:27:03.034Z,77.8
2023-03-26T23:30:02.992Z,77.8
2023-03-26T23:33:03.045Z,77.8
2023-03-26T23:36:03.360Z,77.8
2023-03-26T23:39:03.062Z,77.2
2023-03-26T23:42:02.995Z,77.2
2023-03-26T23:45:02.961Z,77.2
2023-03-26T23:48:03.140Z,77.2
2023-03-26T23:51:06.683Z,77.2
2023-03-26T23:54:02.983Z,76.8
2023-03-26T23:57:03.119Z,76.8
